Latest Weather Observations for Browse Island

IDW60801

Issued at 12:32 am WST Tuesday 23 December 2014 (issued every 30 minutes, with the page automatically refreshed every 10 minutes)

About weather observations | Map of weather stations | Latest weather observations for WA | Other Formats
Station Details ID: 200784 Name: BROWSE ISLAND Lat: -14.11 Lon: 123.55 Height: 3.7 m
Data from the previous 72 hours. | See also: Recent months for locations in Western Australia
Date/Time
WST
Temp
°C
App
Temp
°C
Dew
Point
Rel
Hum
%
Delta-T
°C
Wind Press
QNH
hPa
Press
MSL
hPa
Rain
since 9 am
mm
Dir
 
Spd
km/h
Gust
km/h
Spd
kts
Gust
kts
23/12:30am 30.0 - - - - S 9 11 5 6 1007.0 - -
23/12:00am 29.8 - - - - SSW 9 13 5 7 1007.0 1007.0 -
 
Date/Time
WST
Temp
°C
App
Temp
°C
Dew
Point
Rel
Hum
%
Delta-T
°C
Wind Press
QNH
hPa
Press
MSL
hPa
Rain
since 9 am
mm
Dir
 
Spd
km/h
Gust
km/h
Spd
kts
Gust
kts
22/11:30pm 30.0 - - - - S 11 - 6 - 1007.0 - -
22/11:00pm 29.9 - - - - S 13 - 7 - 1007.0 1007.5 -
22/10:30pm 30.0 - - - - SSW 11 - 6 - 1008.0 - -
22/10:00pm 30.2 - - - - S 7 - 4 - 1007.0 1007.8 -
22/09:30pm 30.0 - - - - SSW 7 - 4 - 1007.0 - -
22/09:00pm 30.1 - - - - CALM 0 - 0 - 1007.0 1007.6 -
22/08:30pm 30.0 - - - - SW 4 - 2 - 1007.0 - -
22/08:00pm 30.3 - - - - S 6 - 3 - 1007.0 1007.1 -
22/07:30pm 30.0 - - - - SSW 7 - 4 - 1006.0 - -
22/07:00pm 30.3 - - - - SW 7 - 4 - 1006.0 1006.6 -
22/06:30pm 30.0 - - - - SW 7 - 4 - 1006.0 - -
22/06:00pm 30.5 - - - - W 7 7 4 4 1005.0 1005.5 -
22/05:30pm 31.0 - - - - WSW 6 - 3 - 1005.0 - -
22/05:00pm 31.2 - - - - WSW 7 - 4 - 1005.0 1005.3 -
22/04:30pm 31.0 - - - - SW 7 - 4 - 1005.0 - -
22/04:00pm 31.5 - - - - WSW 9 - 5 - 1005.0 1005.4 -
22/03:30pm 31.0 - - - - SW 13 - 7 - 1005.0 - -
22/03:00pm 31.2 - - - - SW 11 - 6 - 1006.0 1006.3 -
22/02:30pm 31.0 - - - - SW 9 - 5 - 1006.0 - -
22/02:00pm 31.7 - - - - SSW 7 - 4 - 1006.0 1006.6 -
22/01:30pm 32.0 - - - - SW 7 - 4 - 1006.0 - -
22/01:00pm 31.4 - - - - S 7 - 4 - 1007.0 1007.1 -
22/12:30pm 31.0 - - - - S 11 - 6 - 1007.0 - -
22/12:00pm 30.6 - - - - S 15 - 8 - 1008.0 1008.1 -
22/11:30am 31.0 - - - - S 17 - 9 - 1008.0 - -
22/11:00am 30.2 - - - - S 17 - 9 - 1008.0 1008.6 -
22/10:30am 30.0 - - - - S 17 - 9 - 1009.0 - -
22/10:00am 30.7 - - - - S 13 - 7 - 1009.0 1009.1 -
22/09:30am 30.0 - - - - S 15 - 8 - 1009.0 - -
22/09:00am 30.2 - - - - S 15 - 8 - 1009.0 1009.1 -
22/08:30am 30.0 - - - - S 15 - 8 - 1009.0 - -
22/08:00am 30.0 - - - - S 17 - 9 - 1008.0 1008.6 -
22/07:30am 30.0 - - - - S 17 20 9 11 1008.0 - -
22/07:00am 29.7 - - - - SSW 17 - 9 - 1008.0 1008.1 -
22/06:30am 30.0 - - - - S 13 - 7 - 1007.0 - -
22/06:00am 29.6 - - - - SSW 13 13 7 7 1007.0 1007.5 -
22/05:30am 30.0 - - - - S 13 - 7 - 1007.0 - -
22/05:00am 29.5 - - - - SSW 13 - 7 - 1006.0 1006.7 -
22/04:30am 30.0 - - - - SSW 15 - 8 - 1006.0 - -
22/04:00am 29.6 - - - - SW 11 - 6 - 1006.0 1006.1 -
22/03:30am 30.0 - - - - SW 11 - 6 - 1006.0 - -
22/03:00am 29.6 - - - - SW 11 - 6 - 1006.0 1006.1 -
22/02:30am 30.0 - - - - WSW 9 - 5 - 1006.0 - -
22/02:00am 29.7 - - - - SW 11 - 6 - 1006.0 1005.9 -
22/01:30am 30.0 - - - - SW 13 - 7 - 1006.0 - -
22/01:00am 29.6 - - - - SW 11 - 6 - 1006.0 1006.3 -
22/12:30am 30.0 - - - - SW 11 - 6 - 1006.0 - -
22/12:00am 29.9 - - - - SSW 11 - 6 - 1006.0 1006.4 -
 
Date/Time
WST
Temp
°C
App
Temp
°C
Dew
Point
Rel
Hum
%
Delta-T
°C
Wind Press
QNH
hPa
Press
MSL
hPa
Rain
since 9 am
mm
Dir
 
Spd
km/h
Gust
km/h
Spd
kts
Gust
kts
21/11:30pm 30.0 - - - - SSW 11 - 6 - 1006.0 - -
21/11:00pm 29.9 - - - - SSW 13 - 7 - 1007.0 1007.1 -
21/10:30pm 30.0 - - - - SSW 11 - 6 - 1007.0 - -
21/10:00pm 29.9 - - - - SSW 9 - 5 - 1007.0 1007.3 -
21/09:30pm 30.0 - - - - S 9 - 5 - 1007.0 - -
21/09:00pm 30.0 - - - - SSW 9 - 5 - 1007.0 1007.4 -
21/08:30pm 30.0 - - - - SSW 9 - 5 - 1007.0 - -
21/08:00pm 30.0 - - - - SSW 13 - 7 - 1007.0 1006.9 -
21/07:30pm 30.0 - - - - SSW 13 - 7 - 1006.0 - -
21/07:00pm 30.1 - - - - SSW 15 - 8 - 1006.0 1006.4 -
21/06:30pm 30.0 - - - - SSW 15 - 8 - 1006.0 - -
21/06:00pm 30.3 - - - - SSW 17 - 9 - 1005.0 1005.8 -
21/05:30pm 30.0 - - - - SSW 19 - 10 - 1005.0 - -
21/05:00pm 30.2 - - - - SSW 19 - 10 - 1005.0 1005.3 -
21/04:30pm 30.0 - - - - S 19 - 10 - 1005.0 - -
21/04:00pm 30.3 - - - - S 20 - 11 - 1005.0 1005.2 -
21/03:30pm 30.0 - - - - S 17 - 9 - 1005.0 - -
21/03:00pm 30.3 - - - - SSW 17 - 9 - 1005.0 1005.3 -
21/02:30pm 31.0 - - - - SSW 15 - 8 - 1005.0 - -
21/02:00pm 30.4 - - - - SSW 11 - 6 - 1006.0 1006.2 -
21/01:30pm 30.0 - - - - S 15 - 8 - 1006.0 - -
21/01:00pm 30.2 - - - - SSW 15 - 8 - 1007.0 1007.2 -
21/12:30pm 30.0 - - - - SSW 15 - 8 - 1007.0 - -
21/12:00pm 30.4 - - - - S 17 - 9 - 1008.0 1008.2 -
21/11:30am 30.0 - - - - SSW 15 - 8 - 1008.0 - -
21/11:00am 30.3 - - - - SSW 15 - 8 - 1008.0 1008.6 -
21/10:30am 30.0 - - - - SW 15 - 8 - 1008.0 - -
21/10:00am 30.2 - - - - SW 9 - 5 - 1008.0 1008.8 -
21/09:30am 31.0 - - - - SSW 11 - 6 - 1009.0 - -
21/09:00am 30.3 - - - - SSW 9 - 5 - 1009.0 1009.0 -
21/08:30am 31.0 - - - - WSW 7 - 4 - 1009.0 - -
21/08:00am 30.2 - - - - SW 9 - 5 - 1009.0 1009.1 -
21/07:30am 30.0 - - - - SW 9 - 5 - 1009.0 - -
21/07:00am 29.6 - - - - SW 9 - 5 - 1008.0 1008.6 -
21/06:30am 29.0 - - - - SW 11 - 6 - 1008.0 - -
21/06:00am 29.3 - - - - WSW 9 - 5 - 1008.0 1007.9 -
21/05:30am 29.0 - - - - WSW 11 - 6 - 1007.0 - -
21/05:00am 29.3 - - - - WSW 11 - 6 - 1007.0 1007.2 -
21/04:30am 29.0 - - - - W 9 - 5 - 1007.0 - -
21/04:00am 29.3 - - - - W 7 - 4 - 1006.0 1006.8 -
21/03:30am 29.0 - - - - W 7 - 4 - 1006.0 - -
21/03:00am 29.4 - - - - SW 7 - 4 - 1006.0 1006.6 -
21/02:30am 29.0 - - - - WSW 6 - 3 - 1006.0 - -
21/02:00am 29.4 - - - - CALM 0 - 0 - 1006.0 1006.6 -
21/01:30am 30.0 - - - - S 6 - 3 - 1006.0 - -
21/01:00am 29.7 - - - - S 6 - 3 - 1006.0 1006.8 -
21/12:30am 30.0 - - - - SSE 6 - 3 - 1007.0 - -
21/12:00am 29.7 - - - - ESE 4 - 2 - 1007.0 1007.8 -
 
Date/Time
WST
Temp
°C
App
Temp
°C
Dew
Point
Rel
Hum
%
Delta-T
°C
Wind Press
QNH
hPa
Press
MSL
hPa
Rain
since 9 am
mm
Dir
 
Spd
km/h
Gust
km/h
Spd
kts
Gust
kts
20/11:30pm 30.0 - - - - SE 6 - 3 - 1008.0 - -
20/11:00pm 29.9 - - - - SE 9 - 5 - 1009.0 1008.9 -
20/10:30pm 30.0 - - - - E 6 - 3 - 1009.0 - -
20/10:00pm 30.0 - - - - SE 4 - 2 - 1009.0 1008.9 -
20/09:30pm 30.0 - - - - E 2 - 1 - 1008.0 - -
20/09:00pm 30.1 - - - - SSE 7 - 4 - 1008.0 1008.7 -
20/08:30pm 30.0 - - - - SE 7 - 4 - 1008.0 - -
20/08:00pm 29.9 - - - - SE 9 - 5 - 1008.0 1008.0 -
20/07:30pm 30.0 - - - - SE 13 - 7 - 1008.0 - -
20/07:00pm 29.9 - - - - SSE 15 - 8 - 1007.0 1007.4 -
20/06:30pm 30.0 - - - - SSE 15 - 8 - 1006.0 - -
20/06:00pm 29.8 - - - - S 19 - 10 - 1006.0 1006.3 -
20/05:30pm 30.0 - - - - SSE 22 - 12 - 1006.0 - -
20/05:00pm 30.0 - - - - S 22 - 12 - 1006.0 1006.2 -
20/04:30pm 30.0 - - - - S 22 - 12 - 1005.0 - -
20/04:00pm 30.2 - - - - S 22 - 12 - 1006.0 1006.0 -
20/03:30pm 30.0 - - - - S 26 - 14 - 1006.0 - -
20/03:00pm 30.2 - - - - S 22 - 12 - 1006.0 1006.4 -
20/02:30pm 31.0 - - - - S 20 - 11 - 1006.0 - -
20/02:00pm 30.4 - - - - S 19 - 10 - 1007.0 1006.9 -
20/01:30pm 31.0 - - - - S 19 - 10 - 1007.0 - -
20/01:00pm 30.8 - - - - S 13 - 7 - 1007.0 1007.5 -
20/12:30pm 31.0 - - - - S 17 - 9 - 1008.0 - -
20/12:00pm 30.5 - - - - S 17 - 9 - 1008.0 1008.6 -
20/11:30am 31.0 - - - - S 15 - 8 - 1009.0 - -
20/11:00am 30.6 - - - - S 11 - 6 - 1009.0 1009.2 -
20/10:30am 31.0 - - - - S 11 - 6 - 1009.0 - -
20/10:00am 30.5 - - - - S 13 - 7 - 1010.0 1010.0 -
20/09:30am 30.0 - - - - S 13 - 7 - 1010.0 - -
20/09:00am 30.6 - - - - S 13 - 7 - 1010.0 1010.6 -
20/08:30am 31.0 - - - - SSE 13 - 7 - 1010.0 - -
20/08:00am 30.2 - - - - SSE 15 - 8 - 1010.0 1010.5 -
20/07:30am 30.0 - - - - S 13 - 7 - 1010.0 - -
20/07:00am 29.9 - - - - S 11 - 6 - 1009.0 1009.6 -
20/06:30am 30.0 - - - - S 13 - 7 - 1009.0 - -
20/06:00am 29.8 - - - - S 11 - 6 - 1009.0 1009.0 -
20/05:30am 30.0 - - - - SSW 13 - 7 - 1008.0 - -
20/05:00am 29.6 - - - - SW 13 - 7 - 1008.0 1008.2 -
20/04:30am 30.0 - - - - SW 13 - 7 - 1008.0 - -
20/04:00am 29.7 - - - - SSW 15 - 8 - 1008.0 1008.0 -
20/03:30am 30.0 - - - - SW 17 - 9 - 1008.0 - -
20/03:00am 29.8 - - - - SW 17 - 9 - 1008.0 1008.0 -
20/02:30am 30.0 - - - - WSW 17 - 9 - 1008.0 - -
20/02:00am 29.8 - - - - WSW 17 - 9 - 1008.0 1008.0 -
20/01:30am 30.0 - - - - W 15 - 8 - 1008.0 - -
20/01:00am 30.0 - - - - WSW 15 - 8 - 1008.0 1008.4 -

Other Formats:

Comma delimited format used in spreadsheet applications
http://www.bom.gov.au/fwo/IDW60801/IDW60801.94103.axf

JavaScript Object Notation format (JSON) in row-major order
http://www.bom.gov.au/fwo/IDW60801/IDW60801.94103.json